createdAt,value
2018-03-26T00:02:21.727Z,23.15
2018-03-26T00:04:49.180Z,25.33
2018-03-26T00:07:16.639Z,24.25
2018-03-26T00:09:44.096Z,21.53
2018-03-26T00:12:11.558Z,21.70
2018-03-26T00:14:39.013Z,19.87
2018-03-26T00:17:06.472Z,18.37
2018-03-26T00:19:33.927Z,19.20
2018-03-26T00:22:01.404Z,19.97
2018-03-26T00:24:28.844Z,20.40
2018-03-26T00:26:56.303Z,22.27
2018-03-26T00:29:23.756Z,22.30
2018-03-26T00:31:51.216Z,20.57
2018-03-26T00:34:18.696Z,22.07
2018-03-26T00:36:46.960Z,19.20
2018-03-26T00:39:14.387Z,22.30
2018-03-26T00:41:41.844Z,18.47
2018-03-26T00:44:09.301Z,17.40
2018-03-26T00:46:37.520Z,15.83
2018-03-26T00:49:04.952Z,17.97
2018-03-26T00:51:32.445Z,15.57
2018-03-26T00:53:59.884Z,17.70
2018-03-26T00:56:27.343Z,16.87
2018-03-26T00:58:54.796Z,17.23
2018-03-26T01:01:22.252Z,18.67
2018-03-26T01:03:49.699Z,17.23
2018-03-26T01:06:17.169Z,18.77
2018-03-26T01:08:44.608Z,18.03
2018-03-26T01:11:12.069Z,18.03
2018-03-26T01:13:39.556Z,19.07
2018-03-26T01:16:06.996Z,17.87
2018-03-26T01:18:34.470Z,22.37
2018-03-26T01:21:01.925Z,18.93
2018-03-26T01:23:29.364Z,15.87
2018-03-26T01:25:56.812Z,21.47
2018-03-26T01:28:24.283Z,16.90
2018-03-26T01:30:51.731Z,16.80
2018-03-26T01:33:19.195Z,18.83
2018-03-26T01:35:46.640Z,19.73
2018-03-26T01:38:14.091Z,20.03
2018-03-26T01:40:41.544Z,18.00
2018-03-26T01:43:08.995Z,22.20
2018-03-26T01:45:36.490Z,21.40
2018-03-26T01:48:03.928Z,21.53
2018-03-26T01:50:31.397Z,19.67
2018-03-26T01:52:58.855Z,19.30
2018-03-26T01:55:26.314Z,17.93
2018-03-26T01:57:54.599Z,18.13
2018-03-26T02:00:22.045Z,20.43
2018-03-26T02:02:49.500Z,18.57
2018-03-26T02:05:16.948Z,19.50
2018-03-26T02:07:44.428Z,21.30
2018-03-26T02:10:11.872Z,21.00
2018-03-26T02:12:39.355Z,19.63
2018-03-26T02:15:07.580Z,16.40
2018-03-26T02:17:35.052Z,17.40
2018-03-26T02:20:02.494Z,16.10
2018-03-26T02:22:29.990Z,20.03
2018-03-26T02:24:57.419Z,17.57
2018-03-26T02:27:24.884Z,19.10
2018-03-26T02:29:52.328Z,20.50
2018-03-26T02:32:19.800Z,16.83
2018-03-26T02:34:47.244Z,19.47
2018-03-26T02:37:14.715Z,16.77
2018-03-26T02:39:42.148Z,19.17
2018-03-26T02:42:09.632Z,19.27
2018-03-26T02:44:37.102Z,21.00
2018-03-26T02:47:04.561Z,20.33
2018-03-26T02:49:32.004Z,17.57
2018-03-26T02:51:59.475Z,19.37
2018-03-26T02:54:26.920Z,20.20
2018-03-26T02:56:54.372Z,18.70
2018-03-26T02:59:21.832Z,19.13
2018-03-26T03:01:49.300Z,19.40
2018-03-26T03:04:16.742Z,20.03
2018-03-26T03:06:44.275Z,18.60
2018-03-26T03:09:11.752Z,18.00
2018-03-26T03:11:39.214Z,18.23
2018-03-26T03:14:06.700Z,17.33
2018-03-26T03:16:34.149Z,19.23
2018-03-26T03:19:01.604Z,17.70
2018-03-26T03:21:29.060Z,18.37
2018-03-26T03:23:56.499Z,18.03
2018-03-26T03:26:23.957Z,16.57
2018-03-26T03:28:51.416Z,18.00
2018-03-26T03:31:18.857Z,15.50
2018-03-26T03:33:46.315Z,17.07
2018-03-26T03:36:13.759Z,17.67
2018-03-26T03:38:41.220Z,15.30
2018-03-26T03:41:08.672Z,17.67
2018-03-26T03:43:36.131Z,16.37
2018-03-26T03:46:03.595Z,14.70
2018-03-26T03:48:31.048Z,15.90
2018-03-26T03:50:58.518Z,17.00
2018-03-26T03:53:25.948Z,15.60
2018-03-26T03:55:53.404Z,18.97
2018-03-26T03:58:20.865Z,17.00
2018-03-26T04:00:48.320Z,18.23
2018-03-26T04:03:15.795Z,18.20
2018-03-26T04:05:43.235Z,21.00
2018-03-26T04:08:10.694Z,17.57
2018-03-26T04:10:38.152Z,20.23
2018-03-26T04:13:05.643Z,18.27
2018-03-26T04:15:33.086Z,18.87
2018-03-26T04:18:00.544Z,18.57
2018-03-26T04:20:28.016Z,21.13
2018-03-26T04:22:55.478Z,17.40
2018-03-26T04:25:22.919Z,18.63
2018-03-26T04:27:50.421Z,21.13
2018-03-26T04:30:17.871Z,16.50
2018-03-26T04:32:45.325Z,19.87
2018-03-26T04:35:12.771Z,18.27
2018-03-26T04:37:40.215Z,15.37
2018-03-26T04:40:07.664Z,18.20
2018-03-26T04:42:35.115Z,16.30
2018-03-26T04:45:02.580Z,17.43
2018-03-26T04:47:30.028Z,18.10
2018-03-26T04:49:57.475Z,15.37
2018-03-26T04:52:24.947Z,16.27
2018-03-26T04:54:52.391Z,15.80
2018-03-26T04:57:20.615Z,18.23
2018-03-26T04:59:48.074Z,26.70
2018-03-26T05:02:15.559Z,18.80
2018-03-26T05:04:42.960Z,18.10
2018-03-26T05:07:10.419Z,18.33
2018-03-26T05:09:37.868Z,21.30
2018-03-26T05:12:05.323Z,18.53
2018-03-26T05:14:32.774Z,19.00
2018-03-26T05:17:00.232Z,15.70
2018-03-26T05:19:27.683Z,18.47
2018-03-26T05:21:55.140Z,16.73
2018-03-26T05:24:22.605Z,16.93
2018-03-26T05:26:50.040Z,18.50
2018-03-26T05:29:17.507Z,19.10
2018-03-26T05:31:45.707Z,18.80
2018-03-26T05:34:13.164Z,17.13
2018-03-26T05:36:40.624Z,15.10
2018-03-26T05:39:08.083Z,18.00
2018-03-26T05:41:35.524Z,19.00
2018-03-26T05:44:02.980Z,20.17
2018-03-26T05:46:30.428Z,17.83
2018-03-26T05:48:57.888Z,17.10
2018-03-26T05:51:26.102Z,16.27
2018-03-26T05:53:53.539Z,17.30
2018-03-26T05:56:21.008Z,19.23
2018-03-26T05:58:48.468Z,17.00
2018-03-26T06:01:15.900Z,16.80
2018-03-26T06:03:43.359Z,19.37
2018-03-26T06:06:10.807Z,18.00
2018-03-26T06:08:38.264Z,19.33
2018-03-26T06:11:05.727Z,19.80
2018-03-26T06:13:33.186Z,23.40
2018-03-26T06:16:00.632Z,25.03
2018-03-26T06:18:28.095Z,22.37
2018-03-26T06:20:55.532Z,18.43
2018-03-26T06:23:22.992Z,20.03
2018-03-26T06:25:50.447Z,18.47
2018-03-26T06:28:17.920Z,18.13
2018-03-26T06:30:45.369Z,18.10
2018-03-26T06:33:12.821Z,18.13
2018-03-26T06:35:40.260Z,18.73
2018-03-26T06:38:10.175Z,17.77
2018-03-26T06:40:37.620Z,19.87
2018-03-26T06:43:05.859Z,19.77
2018-03-26T06:45:33.303Z,21.07
2018-03-26T06:48:00.765Z,19.70
2018-03-26T06:50:28.252Z,18.37
2018-03-26T06:52:55.691Z,38.93
2018-03-26T06:55:23.144Z,23.27
2018-03-26T06:57:50.605Z,21.70
2018-03-26T07:00:18.053Z,27.33
2018-03-26T07:02:45.506Z,27.40
2018-03-26T07:05:12.956Z,25.53
2018-03-26T07:07:40.408Z,20.70
2018-03-26T07:10:07.857Z,23.00
2018-03-26T07:12:35.316Z,22.23
2018-03-26T07:15:02.830Z,20.70
2018-03-26T07:17:30.224Z,21.27
2018-03-26T07:19:57.694Z,29.63
2018-03-26T07:22:25.143Z,34.97
2018-03-26T07:24:52.600Z,36.60
2018-03-26T07:27:20.060Z,38.13
2018-03-26T07:29:47.516Z,31.70
2018-03-26T07:32:14.967Z,28.23
2018-03-26T07:34:42.428Z,26.03
2018-03-26T07:37:09.868Z,25.87
2018-03-26T07:39:37.337Z,24.07
2018-03-26T07:42:04.775Z,28.17
2018-03-26T07:44:33.009Z,31.17
2018-03-26T07:47:00.464Z,28.53
2018-03-26T07:49:27.944Z,27.27
2018-03-26T07:51:55.399Z,32.53
2018-03-26T07:54:22.827Z,29.90
2018-03-26T07:56:50.281Z,41.73
2018-03-26T07:59:17.729Z,52.80
2018-03-26T08:01:45.183Z,43.00
2018-03-26T08:04:12.656Z,46.73
2018-03-26T08:06:40.118Z,43.87
2018-03-26T08:09:07.572Z,41.20
2018-03-26T08:11:35.021Z,35.23
2018-03-26T08:14:02.472Z,35.23
2018-03-26T08:16:29.920Z,41.07
2018-03-26T08:18:57.397Z,32.53
2018-03-26T08:21:24.852Z,33.33
2018-03-26T08:23:52.299Z,36.60
2018-03-26T08:26:19.748Z,37.97
2018-03-26T08:28:47.208Z,43.47
2018-03-26T08:31:15.419Z,33.60
2018-03-26T08:33:42.886Z,32.83
2018-03-26T08:36:10.332Z,57.30
2018-03-26T08:38:37.788Z,47.10
2018-03-26T08:41:05.259Z,41.83
2018-03-26T08:43:32.700Z,47.63
2018-03-26T08:46:00.144Z,46.30
2018-03-26T08:48:27.636Z,43.70
2018-03-26T08:50:55.080Z,51.50
2018-03-26T08:53:23.096Z,45.60
2018-03-26T08:55:49.972Z,49.87
2018-03-26T08:58:17.427Z,52.17
2018-03-26T09:00:44.888Z,49.57
2018-03-26T09:03:12.348Z,46.03
2018-03-26T09:05:39.796Z,49.57
2018-03-26T09:08:07.256Z,47.20
2018-03-26T09:10:34.712Z,52.93
2018-03-26T09:13:02.196Z,53.23
2018-03-26T09:15:29.652Z,48.00
2018-03-26T09:17:57.137Z,50.57
2018-03-26T09:20:25.380Z,53.00
2018-03-26T09:22:52.837Z,62.47
2018-03-26T09:25:20.300Z,50.43
2018-03-26T09:27:47.751Z,53.30
2018-03-26T09:30:15.213Z,53.33
2018-03-26T09:32:42.668Z,53.70
2018-03-26T09:35:10.128Z,50.10
2018-03-26T09:37:37.564Z,48.97
2018-03-26T09:40:05.040Z,46.57
2018-03-26T09:42:32.500Z,71.63
2018-03-26T09:44:59.956Z,53.30
2018-03-26T09:47:27.431Z,52.83
2018-03-26T09:49:54.896Z,49.67
2018-03-26T09:52:23.128Z,50.40
2018-03-26T09:54:50.615Z,51.53
2018-03-26T09:57:18.076Z,50.10
2018-03-26T09:59:45.532Z,55.23
2018-03-26T10:02:12.991Z,47.80
2018-03-26T10:04:40.452Z,51.87
2018-03-26T10:07:08.672Z,52.40
2018-03-26T10:09:36.130Z,53.40
2018-03-26T10:12:03.585Z,50.37
2018-03-26T10:14:31.042Z,51.90
2018-03-26T10:16:58.505Z,53.47
2018-03-26T10:19:25.979Z,49.70
2018-03-26T10:21:53.428Z,47.20
2018-03-26T10:24:21.712Z,51.27
2018-03-26T10:26:49.160Z,51.03
2018-03-26T10:29:16.616Z,47.70
2018-03-26T10:31:44.061Z,51.13
2018-03-26T10:34:11.521Z,48.50
2018-03-26T10:36:39.032Z,46.63
2018-03-26T10:39:07.264Z,48.33
2018-03-26T10:41:34.752Z,44.87
2018-03-26T10:44:02.219Z,49.30
2018-03-26T10:46:29.680Z,48.27
2018-03-26T10:48:57.118Z,53.30
2018-03-26T10:51:24.571Z,54.03
2018-03-26T10:53:52.048Z,49.43
2018-03-26T10:56:19.491Z,51.27
2018-03-26T10:58:46.943Z,47.13
2018-03-26T11:01:14.403Z,48.43
2018-03-26T11:03:41.884Z,52.53
2018-03-26T11:06:09.332Z,50.07
2018-03-26T11:08:36.776Z,52.23
2018-03-26T11:11:04.248Z,52.57
2018-03-26T11:13:31.692Z,51.67
2018-03-26T11:15:59.144Z,49.17
2018-03-26T11:18:26.604Z,51.47
2018-03-26T11:20:54.084Z,49.13
2018-03-26T11:23:21.520Z,50.33
2018-03-26T11:25:48.983Z,52.30
2018-03-26T11:28:16.459Z,55.07
2018-03-26T11:30:44.700Z,52.73
2018-03-26T11:33:12.148Z,54.60
2018-03-26T11:35:39.611Z,49.27
2018-03-26T11:38:07.067Z,54.20
2018-03-26T11:40:34.528Z,48.80
2018-03-26T11:43:01.988Z,56.37
2018-03-26T11:45:29.467Z,52.60
2018-03-26T11:47:56.926Z,54.27
2018-03-26T11:50:24.392Z,56.03
2018-03-26T11:52:51.823Z,49.70
2018-03-26T11:55:19.304Z,52.77
2018-03-26T11:57:46.739Z,53.67
2018-03-26T12:00:14.215Z,50.87
2018-03-26T12:02:41.655Z,52.60
2018-03-26T12:05:09.130Z,50.87
2018-03-26T12:07:36.580Z,51.30
2018-03-26T12:10:04.039Z,49.00
2018-03-26T12:12:31.482Z,52.67
2018-03-26T12:14:58.943Z,48.90
2018-03-26T12:17:26.440Z,46.87
2018-03-26T12:20:05.816Z,44.60
2018-03-26T12:22:33.277Z,45.00
2018-03-26T12:25:15.616Z,49.13
2018-03-26T12:27:55.632Z,46.53
2018-03-26T12:30:26.922Z,52.63
2018-03-26T12:32:54.374Z,50.70
2018-03-26T12:35:34.582Z,47.53
2018-03-26T12:38:02.034Z,44.57
2018-03-26T12:40:41.443Z,52.63
2018-03-26T12:43:08.888Z,46.57
2018-03-26T12:45:49.099Z,46.90
2018-03-26T12:48:16.559Z,44.73
2018-03-26T12:50:55.912Z,47.80
2018-03-26T12:53:23.359Z,45.53
2018-03-26T12:55:50.816Z,46.53
2018-03-26T12:58:30.084Z,46.13
2018-03-26T13:01:10.172Z,44.87
2018-03-26T13:03:37.606Z,47.07
2018-03-26T13:06:05.056Z,46.70
2018-03-26T13:08:33.266Z,46.97
2018-03-26T13:11:00.723Z,46.30
2018-03-26T13:13:28.207Z,45.40
2018-03-26T13:15:55.660Z,46.90
2018-03-26T13:18:23.112Z,47.57
2018-03-26T13:20:50.573Z,45.37
2018-03-26T13:23:18.040Z,45.67
2018-03-26T13:25:45.503Z,46.87
2018-03-26T13:28:12.951Z,45.83
2018-03-26T13:30:40.405Z,44.23
2018-03-26T13:33:07.851Z,43.80
2018-03-26T13:35:35.337Z,45.63
2018-03-26T13:38:02.791Z,61.00
2018-03-26T13:40:30.261Z,46.13
2018-03-26T13:42:58.502Z,46.00
2018-03-26T13:45:25.983Z,49.67
2018-03-26T13:47:54.217Z,49.03
2018-03-26T13:50:21.680Z,47.40
2018-03-26T13:52:49.163Z,49.03
2018-03-26T13:55:16.647Z,52.17
2018-03-26T13:57:44.099Z,47.90
2018-03-26T14:00:12.340Z,46.27
2018-03-26T14:02:39.796Z,45.97
2018-03-26T14:05:07.302Z,49.67
2018-03-26T14:07:35.521Z,49.90
2018-03-26T14:10:14.932Z,51.90
2018-03-26T14:12:54.269Z,49.87
2018-03-26T14:15:33.638Z,52.43
2018-03-26T14:18:01.097Z,47.80
2018-03-26T14:20:28.571Z,47.57
2018-03-26T14:22:56.055Z,45.90
2018-03-26T14:25:24.276Z,48.30
2018-03-26T14:27:51.733Z,48.77
2018-03-26T14:30:19.187Z,45.07
2018-03-26T14:32:46.648Z,56.67
2018-03-26T14:38:23.040Z,61.70
2018-03-26T14:40:50.502Z,61.63
2018-03-26T14:43:17.950Z,62.67
2018-03-26T14:45:45.383Z,59.73
2018-03-26T14:48:12.833Z,59.63
2018-03-26T14:50:40.273Z,67.63
2018-03-26T14:53:08.512Z,62.10
2018-03-26T14:55:35.956Z,59.37
2018-03-26T14:58:03.412Z,62.00
2018-03-26T15:00:30.869Z,68.10
2018-03-26T15:02:58.345Z,65.87
2018-03-26T15:05:25.856Z,58.47
2018-03-26T15:07:53.304Z,58.37
2018-03-26T15:10:20.819Z,56.33
2018-03-26T15:12:48.308Z,57.10
2018-03-26T15:15:15.764Z,57.00
2018-03-26T15:17:43.988Z,60.83
2018-03-26T15:20:11.445Z,59.77
2018-03-26T15:22:38.908Z,61.87
2018-03-26T15:25:06.364Z,58.27
2018-03-26T15:27:33.857Z,56.73
2018-03-26T15:30:01.313Z,54.53
2018-03-26T15:32:28.767Z,56.80
2018-03-26T15:34:56.224Z,139.37
2018-03-26T15:37:23.680Z,58.30
2018-03-26T15:39:51.156Z,61.40
2018-03-26T15:42:18.599Z,59.27
2018-03-26T15:44:46.074Z,60.87
2018-03-26T15:47:13.536Z,59.50
2018-03-26T15:49:41.776Z,56.03
2018-03-26T15:52:09.259Z,53.70
2018-03-26T15:54:36.691Z,53.70
2018-03-26T15:57:04.143Z,56.50
2018-03-26T15:59:31.621Z,50.47
2018-03-26T16:01:58.577Z,51.87
2018-03-26T16:04:26.822Z,55.53
2018-03-26T16:06:54.294Z,56.93
2018-03-26T16:09:21.748Z,49.13
2018-03-26T16:11:49.204Z,53.30
2018-03-26T16:14:16.683Z,53.83
2018-03-26T16:16:44.905Z,49.67
2018-03-26T16:19:12.366Z,52.57
2018-03-26T16:21:39.845Z,54.23
2018-03-26T16:24:07.303Z,50.90
2018-03-26T16:26:34.772Z,51.90
2018-03-26T16:29:02.235Z,52.83
2018-03-26T16:31:29.704Z,54.03
2018-03-26T16:33:57.941Z,51.67
2018-03-26T16:36:25.396Z,52.73
2018-03-26T16:38:52.840Z,51.47
2018-03-26T16:41:32.177Z,57.53
2018-03-26T16:43:59.634Z,59.23
2018-03-26T16:46:27.100Z,61.83
2018-03-26T16:48:54.545Z,60.37
2018-03-26T16:51:22.102Z,57.73
2018-03-26T16:53:49.617Z,54.60
2018-03-26T16:56:17.840Z,61.67
2018-03-26T16:58:45.308Z,62.50
2018-03-26T17:01:12.756Z,54.20
2018-03-26T17:03:40.246Z,48.50
2018-03-26T17:06:07.668Z,50.67
2018-03-26T17:08:35.141Z,46.57
2018-03-26T17:11:02.664Z,50.03
2018-03-26T17:13:30.078Z,36.87
2018-03-26T17:15:57.519Z,39.47
2018-03-26T17:18:25.003Z,30.77
2018-03-26T17:20:53.232Z,24.07
2018-03-26T17:23:20.689Z,29.40
2018-03-26T17:25:48.148Z,34.10
2018-03-26T17:28:15.640Z,32.93
2018-03-26T17:30:43.083Z,31.63
2018-03-26T17:33:10.543Z,28.53
2018-03-26T17:35:37.984Z,28.50
2018-03-26T17:38:05.447Z,30.73
2018-03-26T17:40:32.896Z,28.40
2018-03-26T17:43:00.359Z,29.00
2018-03-26T17:45:27.856Z,28.00
2018-03-26T17:47:56.079Z,30.00
2018-03-26T17:50:23.536Z,31.17
2018-03-26T17:52:51.024Z,28.33
2018-03-26T17:55:18.465Z,30.53
2018-03-26T17:57:45.975Z,30.37
2018-03-26T18:00:13.364Z,29.20
2018-03-26T18:02:40.836Z,29.57
2018-03-26T18:05:08.304Z,29.37
2018-03-26T18:07:35.755Z,27.40
2018-03-26T18:10:03.249Z,27.53
2018-03-26T18:12:30.690Z,34.37
2018-03-26T18:14:58.148Z,50.37
2018-03-26T18:17:25.608Z,47.33
2018-03-26T18:19:53.813Z,34.70
2018-03-26T18:22:21.266Z,29.60
2018-03-26T18:24:48.712Z,27.53
2018-03-26T18:27:16.943Z,23.20
2018-03-26T18:29:44.416Z,27.70
2018-03-26T18:32:11.844Z,23.60
2018-03-26T18:34:39.312Z,25.57
2018-03-26T18:37:06.760Z,28.73
2018-03-26T18:39:34.228Z,24.50
2018-03-26T18:42:01.677Z,22.67
2018-03-26T18:44:29.186Z,20.80
2018-03-26T18:46:56.588Z,24.03
2018-03-26T18:49:24.061Z,18.87
2018-03-26T18:51:51.503Z,23.40
2018-03-26T18:54:18.960Z,23.13
2018-03-26T18:56:46.423Z,20.80
2018-03-26T18:59:13.896Z,22.73
2018-03-26T19:01:41.344Z,21.03
2018-03-26T19:04:08.812Z,23.87
2018-03-26T19:06:36.260Z,24.90
2018-03-26T19:09:03.728Z,21.00
2018-03-26T19:11:31.184Z,21.43
2018-03-26T19:13:58.640Z,20.83
2018-03-26T19:16:26.096Z,22.53
2018-03-26T19:18:53.565Z,21.47
2018-03-26T19:21:21.012Z,18.10
2018-03-26T19:23:48.475Z,19.03
2018-03-26T19:26:15.920Z,21.97
2018-03-26T19:28:43.418Z,22.60
2018-03-26T19:31:10.844Z,20.50
2018-03-26T19:33:38.316Z,20.70
2018-03-26T19:36:06.564Z,20.80
2018-03-26T19:38:34.020Z,19.23
2018-03-26T19:41:01.471Z,21.53
2018-03-26T19:43:28.928Z,20.43
2018-03-26T19:45:56.382Z,22.47
2018-03-26T19:48:23.840Z,24.37
2018-03-26T19:50:51.303Z,23.10
2018-03-26T19:53:18.775Z,22.93
2018-03-26T19:55:46.227Z,24.53
2018-03-26T19:58:13.743Z,23.00
2018-03-26T20:00:41.136Z,28.37
2018-03-26T20:03:08.592Z,28.90
2018-03-26T20:05:36.035Z,27.00
2018-03-26T20:08:03.496Z,21.30
2018-03-26T20:10:30.957Z,26.57
2018-03-26T20:12:58.410Z,25.97
2018-03-26T20:15:25.869Z,23.80
2018-03-26T20:17:53.401Z,23.37
2018-03-26T20:20:20.791Z,29.97
2018-03-26T20:22:48.282Z,36.97
2018-03-26T20:25:15.728Z,29.83
2018-03-26T20:27:43.175Z,30.47
2018-03-26T20:30:10.643Z,31.73
2018-03-26T20:32:38.100Z,40.77
2018-03-26T20:35:05.569Z,40.87
2018-03-26T20:37:33.021Z,46.67
2018-03-26T20:40:00.488Z,49.10
2018-03-26T20:42:28.732Z,43.43
2018-03-26T20:44:56.171Z,40.33
2018-03-26T20:47:23.627Z,41.23
2018-03-26T20:49:51.084Z,35.10
2018-03-26T20:52:18.539Z,30.00
2018-03-26T20:54:46.000Z,33.20
2018-03-26T20:57:13.459Z,33.97
2018-03-26T20:59:40.915Z,31.97
2018-03-26T21:02:08.370Z,39.90
2018-03-26T21:04:35.833Z,38.17
2018-03-26T21:07:03.290Z,35.60
2018-03-26T21:09:30.757Z,37.27
2018-03-26T21:11:58.200Z,41.80
2018-03-26T21:14:25.657Z,37.97
2018-03-26T21:16:53.115Z,37.67
2018-03-26T21:19:20.571Z,44.03
2018-03-26T21:21:48.028Z,44.57
2018-03-26T21:24:15.488Z,39.30
2018-03-26T21:26:42.949Z,48.93
2018-03-26T21:29:10.404Z,48.67
2018-03-26T21:31:37.862Z,54.57
2018-03-26T21:34:05.316Z,47.93
2018-03-26T21:36:32.783Z,41.57
2018-03-26T21:41:34.269Z,34.93
2018-03-26T21:44:01.717Z,41.00
2018-03-26T21:46:29.167Z,34.80
2018-03-26T21:48:56.620Z,33.83
2018-03-26T21:51:24.104Z,37.00
2018-03-26T21:53:51.563Z,38.40
2018-03-26T21:56:19.040Z,34.70
2018-03-26T21:58:46.492Z,34.60
2018-03-26T22:01:14.736Z,34.40
2018-03-26T22:03:42.179Z,35.40
2018-03-26T22:06:09.632Z,33.17
2018-03-26T22:08:37.087Z,40.57
2018-03-26T22:11:04.516Z,43.63
2018-03-26T22:13:31.967Z,44.50
2018-03-26T22:15:59.413Z,44.53
2018-03-26T22:18:27.643Z,42.87
2018-03-26T22:20:55.099Z,38.40
2018-03-26T22:23:22.552Z,35.07
2018-03-26T22:25:50.008Z,33.63
2018-03-26T22:28:17.473Z,34.80
2018-03-26T22:30:44.921Z,34.90
2018-03-26T22:33:12.380Z,29.90
2018-03-26T22:35:39.835Z,31.07
2018-03-26T22:38:07.295Z,37.73
2018-03-26T22:40:34.750Z,33.87
2018-03-26T22:43:02.222Z,38.57
2018-03-26T22:45:29.664Z,44.17
2018-03-26T22:47:57.108Z,38.67
2018-03-26T22:50:24.573Z,47.43
2018-03-26T22:52:52.007Z,42.00
2018-03-26T22:55:19.459Z,42.03
2018-03-26T22:57:46.916Z,36.93
2018-03-26T23:00:14.409Z,40.03
2018-03-26T23:02:41.864Z,29.80
2018-03-26T23:05:09.320Z,41.70
2018-03-26T23:07:36.777Z,43.70
2018-03-26T23:10:04.235Z,49.03
2018-03-26T23:12:31.672Z,55.67
2018-03-26T23:14:59.147Z,59.80
2018-03-26T23:17:26.584Z,54.60
2018-03-26T23:19:54.065Z,56.77
2018-03-26T23:22:33.458Z,62.63
2018-03-26T23:25:00.912Z,57.80
2018-03-26T23:27:29.136Z,60.37
2018-03-26T23:29:56.595Z,57.50
2018-03-26T23:32:24.049Z,59.20
2018-03-26T23:34:51.504Z,52.07
2018-03-26T23:37:18.947Z,47.30
2018-03-26T23:39:46.420Z,42.60
2018-03-26T23:42:13.883Z,50.20
2018-03-26T23:44:41.335Z,38.10
2018-03-26T23:47:08.792Z,39.97
2018-03-26T23:49:36.309Z,40.77
2018-03-26T23:52:03.706Z,44.07
2018-03-26T23:54:31.214Z,41.13
2018-03-26T23:56:58.617Z,37.27
2018-03-26T23:59:26.079Z,34.23
